sensor_id;sensor_type;location;lat;lon;timestamp;P1;durP1;ratioP1;P2;durP2;ratioP2
6280;SDS011;3173;48.204;11.612;2022-07-05T00:00:55;5.30;;;2.37;;
6280;SDS011;3173;48.204;11.612;2022-07-05T00:03:21;3.77;;;2.07;;
6280;SDS011;3173;48.204;11.612;2022-07-05T00:05:47;4.37;;;2.30;;
6280;SDS011;3173;48.204;11.612;2022-07-05T00:08:14;3.80;;;2.30;;
6280;SDS011;3173;48.204;11.612;2022-07-05T00:10:40;5.30;;;2.20;;
6280;SDS011;3173;48.204;11.612;2022-07-05T00:13:06;5.93;;;2.30;;
6280;SDS011;3173;48.204;11.612;2022-07-05T00:15:33;2.80;;;2.53;;
6280;SDS011;3173;48.204;11.612;2022-07-05T00:17:59;9.30;;;1.80;;
6280;SDS011;3173;48.204;11.612;2022-07-05T00:20:25;3.17;;;1.70;;
6280;SDS011;3173;48.204;11.612;2022-07-05T00:22:51;2.70;;;2.00;;
6280;SDS011;3173;48.204;11.612;2022-07-05T00:25:17;3.80;;;2.20;;
6280;SDS011;3173;48.204;11.612;2022-07-05T00:27:43;2.63;;;1.87;;
6280;SDS011;3173;48.204;11.612;2022-07-05T00:30:09;3.97;;;2.00;;
6280;SDS011;3173;48.204;11.612;2022-07-05T00:32:36;2.17;;;1.97;;
6280;SDS011;3173;48.204;11.612;2022-07-05T00:35:03;2.43;;;1.50;;
6280;SDS011;3173;48.204;11.612;2022-07-05T00:37:29;2.77;;;1.30;;
6280;SDS011;3173;48.204;11.612;2022-07-05T00:39:55;2.50;;;1.43;;
6280;SDS011;3173;48.204;11.612;2022-07-05T00:42:21;4.60;;;1.53;;
6280;SDS011;3173;48.204;11.612;2022-07-05T00:44:47;3.03;;;1.60;;
6280;SDS011;3173;48.204;11.612;2022-07-05T00:47:13;2.37;;;1.67;;
6280;SDS011;3173;48.204;11.612;2022-07-05T00:49:40;2.90;;;1.53;;
6280;SDS011;3173;48.204;11.612;2022-07-05T00:52:06;3.73;;;1.97;;
6280;SDS011;3173;48.204;11.612;2022-07-05T00:54:33;2.33;;;1.90;;
6280;SDS011;3173;48.204;11.612;2022-07-05T00:56:59;3.70;;;1.80;;
6280;SDS011;3173;48.204;11.612;2022-07-05T00:59:26;4.70;;;2.30;;
6280;SDS011;3173;48.204;11.612;2022-07-05T01:01:52;2.23;;;1.80;;
6280;SDS011;3173;48.204;11.612;2022-07-05T01:04:18;4.97;;;2.27;;
6280;SDS011;3173;48.204;11.612;2022-07-05T01:06:45;4.07;;;2.17;;
6280;SDS011;3173;48.204;11.612;2022-07-05T01:09:12;2.93;;;2.23;;
6280;SDS011;3173;48.204;11.612;2022-07-05T01:11:45;3.73;;;2.70;;
6280;SDS011;3173;48.204;11.612;2022-07-05T01:14:11;4.80;;;2.30;;
6280;SDS011;3173;48.204;11.612;2022-07-05T01:16:38;3.30;;;2.30;;
6280;SDS011;3173;48.204;11.612;2022-07-05T01:19:04;2.17;;;1.97;;
6280;SDS011;3173;48.204;11.612;2022-07-05T01:21:31;4.40;;;2.50;;
6280;SDS011;3173;48.204;11.612;2022-07-05T01:23:58;3.07;;;1.90;;
6280;SDS011;3173;48.204;11.612;2022-07-05T01:26:24;3.20;;;2.27;;
6280;SDS011;3173;48.204;11.612;2022-07-05T01:28:50;2.97;;;2.30;;
6280;SDS011;3173;48.204;11.612;2022-07-05T01:31:16;3.30;;;2.07;;
6280;SDS011;3173;48.204;11.612;2022-07-05T01:33:42;3.53;;;2.67;;
6280;SDS011;3173;48.204;11.612;2022-07-05T01:36:10;3.37;;;2.20;;
6280;SDS011;3173;48.204;11.612;2022-07-05T01:38:36;2.87;;;2.30;;
6280;SDS011;3173;48.204;11.612;2022-07-05T01:41:02;2.60;;;2.40;;
6280;SDS011;3173;48.204;11.612;2022-07-05T01:43:28;3.37;;;2.63;;
6280;SDS011;3173;48.204;11.612;2022-07-05T01:45:54;4.53;;;2.50;;
6280;SDS011;3173;48.204;11.612;2022-07-05T01:48:20;5.77;;;2.90;;
6280;SDS011;3173;48.204;11.612;2022-07-05T01:50:53;3.80;;;2.60;;
6280;SDS011;3173;48.204;11.612;2022-07-05T01:53:23;5.53;;;3.10;;
6280;SDS011;3173;48.204;11.612;2022-07-05T01:55:50;3.40;;;2.80;;
6280;SDS011;3173;48.204;11.612;2022-07-05T01:58:16;6.93;;;3.30;;
6280;SDS011;3173;48.204;11.612;2022-07-05T02:00:46;5.20;;;3.10;;
6280;SDS011;3173;48.204;11.612;2022-07-05T02:03:12;2.90;;;2.50;;
6280;SDS011;3173;48.204;11.612;2022-07-05T02:05:39;6.83;;;2.90;;
6280;SDS011;3173;48.204;11.612;2022-07-05T02:08:06;3.97;;;3.40;;
6280;SDS011;3173;48.204;11.612;2022-07-05T02:10:32;2.53;;;2.30;;
6280;SDS011;3173;48.204;11.612;2022-07-05T02:12:59;3.90;;;3.20;;
6280;SDS011;3173;48.204;11.612;2022-07-05T02:15:25;3.90;;;2.80;;
6280;SDS011;3173;48.204;11.612;2022-07-05T02:17:51;4.00;;;2.70;;
6280;SDS011;3173;48.204;11.612;2022-07-05T02:20:17;4.97;;;2.70;;
6280;SDS011;3173;48.204;11.612;2022-07-05T02:22:43;5.37;;;3.00;;
6280;SDS011;3173;48.204;11.612;2022-07-05T02:25:10;6.47;;;3.00;;
6280;SDS011;3173;48.204;11.612;2022-07-05T02:27:36;6.07;;;2.93;;
6280;SDS011;3173;48.204;11.612;2022-07-05T02:30:02;5.10;;;3.43;;
6280;SDS011;3173;48.204;11.612;2022-07-05T02:32:28;6.97;;;3.43;;
6280;SDS011;3173;48.204;11.612;2022-07-05T02:34:56;3.20;;;2.67;;
6280;SDS011;3173;48.204;11.612;2022-07-05T02:37:22;6.10;;;3.67;;
6280;SDS011;3173;48.204;11.612;2022-07-05T02:39:48;4.70;;;3.30;;
6280;SDS011;3173;48.204;11.612;2022-07-05T02:42:14;3.53;;;2.60;;
6280;SDS011;3173;48.204;11.612;2022-07-05T02:44:40;3.97;;;3.40;;
6280;SDS011;3173;48.204;11.612;2022-07-05T02:47:06;4.77;;;2.87;;
6280;SDS011;3173;48.204;11.612;2022-07-05T02:49:32;3.40;;;3.10;;
6280;SDS011;3173;48.204;11.612;2022-07-05T02:51:58;4.23;;;3.20;;
6280;SDS011;3173;48.204;11.612;2022-07-05T02:54:24;3.60;;;3.00;;
6280;SDS011;3173;48.204;11.612;2022-07-05T02:56:49;3.10;;;2.80;;
6280;SDS011;3173;48.204;11.612;2022-07-05T02:59:15;3.73;;;3.03;;
6280;SDS011;3173;48.204;11.612;2022-07-05T03:01:41;6.63;;;3.33;;
6280;SDS011;3173;48.204;11.612;2022-07-05T03:04:07;5.83;;;3.30;;
6280;SDS011;3173;48.204;11.612;2022-07-05T03:06:35;8.23;;;3.67;;
6280;SDS011;3173;48.204;11.612;2022-07-05T03:09:01;4.83;;;3.20;;
6280;SDS011;3173;48.204;11.612;2022-07-05T03:11:27;5.77;;;3.50;;
6280;SDS011;3173;48.204;11.612;2022-07-05T03:13:53;4.30;;;3.40;;
6280;SDS011;3173;48.204;11.612;2022-07-05T03:16:18;3.80;;;3.20;;
6280;SDS011;3173;48.204;11.612;2022-07-05T03:18:44;3.57;;;2.80;;
6280;SDS011;3173;48.204;11.612;2022-07-05T03:21:11;5.23;;;3.30;;
6280;SDS011;3173;48.204;11.612;2022-07-05T03:23:37;4.60;;;2.80;;
6280;SDS011;3173;48.204;11.612;2022-07-05T03:26:03;3.40;;;2.77;;
6280;SDS011;3173;48.204;11.612;2022-07-05T03:28:29;3.63;;;2.57;;
6280;SDS011;3173;48.204;11.612;2022-07-05T03:30:55;4.07;;;3.00;;
6280;SDS011;3173;48.204;11.612;2022-07-05T03:33:21;7.00;;;3.67;;
6280;SDS011;3173;48.204;11.612;2022-07-05T03:35:46;4.33;;;3.53;;
6280;SDS011;3173;48.204;11.612;2022-07-05T03:38:12;4.30;;;3.50;;
6280;SDS011;3173;48.204;11.612;2022-07-05T03:40:38;6.07;;;4.70;;
6280;SDS011;3173;48.204;11.612;2022-07-05T03:43:04;5.13;;;4.57;;
6280;SDS011;3173;48.204;11.612;2022-07-05T03:45:30;3.70;;;2.77;;
6280;SDS011;3173;48.204;11.612;2022-07-05T03:47:59;5.80;;;3.37;;
6280;SDS011;3173;48.204;11.612;2022-07-05T03:50:26;3.13;;;2.80;;
6280;SDS011;3173;48.204;11.612;2022-07-05T03:52:52;2.43;;;2.23;;
6280;SDS011;3173;48.204;11.612;2022-07-05T03:55:18;4.20;;;2.53;;
6280;SDS011;3173;48.204;11.612;2022-07-05T03:57:44;4.00;;;2.30;;
6280;SDS011;3173;48.204;11.612;2022-07-05T04:00:10;3.33;;;2.50;;
6280;SDS011;3173;48.204;11.612;2022-07-05T04:02:37;3.57;;;2.47;;
6280;SDS011;3173;48.204;11.612;2022-07-05T04:05:04;4.80;;;2.40;;
6280;SDS011;3173;48.204;11.612;2022-07-05T04:07:30;9.40;;;3.50;;
6280;SDS011;3173;48.204;11.612;2022-07-05T04:09:55;6.90;;;2.80;;
6280;SDS011;3173;48.204;11.612;2022-07-05T04:12:22;3.87;;;2.47;;
6280;SDS011;3173;48.204;11.612;2022-07-05T04:14:48;7.07;;;2.50;;
6280;SDS011;3173;48.204;11.612;2022-07-05T04:17:14;3.17;;;2.70;;
6280;SDS011;3173;48.204;11.612;2022-07-05T04:19:40;2.67;;;2.30;;
6280;SDS011;3173;48.204;11.612;2022-07-05T04:22:06;4.50;;;2.80;;
6280;SDS011;3173;48.204;11.612;2022-07-05T04:24:32;4.90;;;2.90;;
6280;SDS011;3173;48.204;11.612;2022-07-05T04:27:18;5.67;;;3.27;;
6280;SDS011;3173;48.204;11.612;2022-07-05T04:29:44;8.67;;;2.50;;
6280;SDS011;3173;48.204;11.612;2022-07-05T04:32:09;3.17;;;2.73;;
6280;SDS011;3173;48.204;11.612;2022-07-05T04:34:35;3.40;;;2.10;;
6280;SDS011;3173;48.204;11.612;2022-07-05T04:37:01;4.00;;;2.13;;
6280;SDS011;3173;48.204;11.612;2022-07-05T04:39:27;5.43;;;2.30;;
6280;SDS011;3173;48.204;11.612;2022-07-05T04:41:53;3.03;;;1.73;;
6280;SDS011;3173;48.204;11.612;2022-07-05T04:44:19;2.40;;;1.70;;
6280;SDS011;3173;48.204;11.612;2022-07-05T04:46:45;4.63;;;2.90;;
6280;SDS011;3173;48.204;11.612;2022-07-05T04:49:11;4.23;;;2.43;;
6280;SDS011;3173;48.204;11.612;2022-07-05T04:51:37;7.60;;;2.07;;
6280;SDS011;3173;48.204;11.612;2022-07-05T04:54:03;2.40;;;1.80;;
6280;SDS011;3173;48.204;11.612;2022-07-05T04:56:29;3.40;;;1.80;;
6280;SDS011;3173;48.204;11.612;2022-07-05T04:58:55;5.40;;;2.10;;
6280;SDS011;3173;48.204;11.612;2022-07-05T05:01:21;4.40;;;1.90;;
6280;SDS011;3173;48.204;11.612;2022-07-05T05:03:47;3.13;;;2.10;;
6280;SDS011;3173;48.204;11.612;2022-07-05T05:06:13;2.10;;;1.90;;
6280;SDS011;3173;48.204;11.612;2022-07-05T05:08:39;2.47;;;1.50;;
6280;SDS011;3173;48.204;11.612;2022-07-05T05:11:06;5.63;;;1.90;;
6280;SDS011;3173;48.204;11.612;2022-07-05T05:13:32;1.73;;;1.43;;
6280;SDS011;3173;48.204;11.612;2022-07-05T05:15:58;4.13;;;1.70;;
6280;SDS011;3173;48.204;11.612;2022-07-05T05:18:24;5.40;;;1.77;;
6280;SDS011;3173;48.204;11.612;2022-07-05T05:20:52;4.23;;;1.90;;
6280;SDS011;3173;48.204;11.612;2022-07-05T05:23:19;3.07;;;2.20;;
6280;SDS011;3173;48.204;11.612;2022-07-05T05:25:45;5.17;;;2.03;;
6280;SDS011;3173;48.204;11.612;2022-07-05T05:28:11;4.97;;;2.20;;
6280;SDS011;3173;48.204;11.612;2022-07-05T05:30:37;3.87;;;2.67;;
6280;SDS011;3173;48.204;11.612;2022-07-05T05:33:03;5.60;;;2.50;;
6280;SDS011;3173;48.204;11.612;2022-07-05T05:35:29;5.97;;;2.67;;
6280;SDS011;3173;48.204;11.612;2022-07-05T05:37:55;4.20;;;2.50;;
6280;SDS011;3173;48.204;11.612;2022-07-05T05:40:22;6.00;;;2.80;;
6280;SDS011;3173;48.204;11.612;2022-07-05T05:42:49;4.60;;;2.20;;
6280;SDS011;3173;48.204;11.612;2022-07-05T05:45:15;4.67;;;2.47;;
6280;SDS011;3173;48.204;11.612;2022-07-05T05:47:51;4.20;;;3.53;;
6280;SDS011;3173;48.204;11.612;2022-07-05T05:50:18;5.50;;;2.90;;
6280;SDS011;3173;48.204;11.612;2022-07-05T05:52:44;3.93;;;2.87;;
6280;SDS011;3173;48.204;11.612;2022-07-05T05:55:10;5.30;;;2.93;;
6280;SDS011;3173;48.204;11.612;2022-07-05T05:57:36;4.53;;;2.70;;
6280;SDS011;3173;48.204;11.612;2022-07-05T06:00:06;7.10;;;3.97;;
6280;SDS011;3173;48.204;11.612;2022-07-05T06:02:32;5.30;;;3.03;;
6280;SDS011;3173;48.204;11.612;2022-07-05T06:04:58;4.17;;;3.47;;
6280;SDS011;3173;48.204;11.612;2022-07-05T06:07:24;5.80;;;3.60;;
6280;SDS011;3173;48.204;11.612;2022-07-05T06:09:50;5.53;;;3.70;;
6280;SDS011;3173;48.204;11.612;2022-07-05T06:12:16;5.40;;;3.93;;
6280;SDS011;3173;48.204;11.612;2022-07-05T06:14:42;5.87;;;3.47;;
6280;SDS011;3173;48.204;11.612;2022-07-05T06:17:08;4.43;;;3.80;;
6280;SDS011;3173;48.204;11.612;2022-07-05T06:19:34;7.00;;;3.60;;
6280;SDS011;3173;48.204;11.612;2022-07-05T06:22:00;5.10;;;3.67;;
6280;SDS011;3173;48.204;11.612;2022-07-05T06:24:26;8.40;;;4.07;;
6280;SDS011;3173;48.204;11.612;2022-07-05T06:26:52;8.13;;;3.93;;
6280;SDS011;3173;48.204;11.612;2022-07-05T06:29:18;5.33;;;4.00;;
6280;SDS011;3173;48.204;11.612;2022-07-05T06:31:44;4.80;;;3.80;;
6280;SDS011;3173;48.204;11.612;2022-07-05T06:34:10;8.13;;;4.13;;
6280;SDS011;3173;48.204;11.612;2022-07-05T06:36:36;5.37;;;3.93;;
6280;SDS011;3173;48.204;11.612;2022-07-05T06:39:02;6.60;;;3.77;;
6280;SDS011;3173;48.204;11.612;2022-07-05T06:41:28;9.10;;;3.60;;
6280;SDS011;3173;48.204;11.612;2022-07-05T06:43:54;5.63;;;3.50;;
6280;SDS011;3173;48.204;11.612;2022-07-05T06:46:20;6.80;;;3.40;;
6280;SDS011;3173;48.204;11.612;2022-07-05T06:48:46;9.20;;;3.90;;
6280;SDS011;3173;48.204;11.612;2022-07-05T06:51:12;4.90;;;3.73;;
6280;SDS011;3173;48.204;11.612;2022-07-05T06:53:38;6.10;;;3.53;;
6280;SDS011;3173;48.204;11.612;2022-07-05T06:56:04;5.57;;;4.00;;
6280;SDS011;3173;48.204;11.612;2022-07-05T06:58:30;4.90;;;4.00;;
6280;SDS011;3173;48.204;11.612;2022-07-05T07:00:56;5.27;;;3.40;;
6280;SDS011;3173;48.204;11.612;2022-07-05T07:03:22;9.60;;;3.63;;
6280;SDS011;3173;48.204;11.612;2022-07-05T07:05:48;8.23;;;3.37;;
6280;SDS011;3173;48.204;11.612;2022-07-05T07:08:15;6.50;;;2.97;;
6280;SDS011;3173;48.204;11.612;2022-07-05T07:11:00;4.03;;;3.20;;
6280;SDS011;3173;48.204;11.612;2022-07-05T07:13:26;4.03;;;2.70;;
6280;SDS011;3173;48.204;11.612;2022-07-05T07:15:52;7.70;;;2.80;;
6280;SDS011;3173;48.204;11.612;2022-07-05T07:18:18;8.93;;;2.63;;
6280;SDS011;3173;48.204;11.612;2022-07-05T07:20:44;4.23;;;2.33;;
6280;SDS011;3173;48.204;11.612;2022-07-05T07:23:10;10.23;;;3.00;;
6280;SDS011;3173;48.204;11.612;2022-07-05T07:25:36;2.90;;;2.10;;
6280;SDS011;3173;48.204;11.612;2022-07-05T07:28:02;4.23;;;2.23;;
6280;SDS011;3173;48.204;11.612;2022-07-05T07:30:29;9.23;;;3.93;;
6280;SDS011;3173;48.204;11.612;2022-07-05T07:32:55;4.53;;;2.80;;
6280;SDS011;3173;48.204;11.612;2022-07-05T07:35:22;4.13;;;2.90;;
6280;SDS011;3173;48.204;11.612;2022-07-05T07:37:48;4.40;;;2.73;;
6280;SDS011;3173;48.204;11.612;2022-07-05T07:40:14;4.20;;;2.50;;
6280;SDS011;3173;48.204;11.612;2022-07-05T07:42:40;8.47;;;2.97;;
6280;SDS011;3173;48.204;11.612;2022-07-05T07:45:06;5.43;;;2.63;;
6280;SDS011;3173;48.204;11.612;2022-07-05T07:47:33;8.07;;;2.57;;
6280;SDS011;3173;48.204;11.612;2022-07-05T07:49:59;3.60;;;2.50;;
6280;SDS011;3173;48.204;11.612;2022-07-05T07:52:25;5.50;;;2.80;;
6280;SDS011;3173;48.204;11.612;2022-07-05T07:54:52;16.83;;;3.00;;
6280;SDS011;3173;48.204;11.612;2022-07-05T07:57:17;9.03;;;2.70;;
6280;SDS011;3173;48.204;11.612;2022-07-05T07:59:43;3.20;;;2.40;;
6280;SDS011;3173;48.204;11.612;2022-07-05T08:02:09;7.07;;;2.23;;
6280;SDS011;3173;48.204;11.612;2022-07-05T08:04:36;4.93;;;2.57;;
6280;SDS011;3173;48.204;11.612;2022-07-05T08:07:02;4.80;;;2.27;;
6280;SDS011;3173;48.204;11.612;2022-07-05T08:09:28;5.93;;;2.57;;
6280;SDS011;3173;48.204;11.612;2022-07-05T08:11:54;2.87;;;1.73;;
6280;SDS011;3173;48.204;11.612;2022-07-05T08:14:20;6.00;;;2.40;;
6280;SDS011;3173;48.204;11.612;2022-07-05T08:16:47;3.50;;;1.60;;
6280;SDS011;3173;48.204;11.612;2022-07-05T08:19:14;2.40;;;1.50;;
6280;SDS011;3173;48.204;11.612;2022-07-05T08:21:59;6.07;;;1.70;;
6280;SDS011;3173;48.204;11.612;2022-07-05T08:24:26;10.53;;;1.63;;
6280;SDS011;3173;48.204;11.612;2022-07-05T08:26:52;8.57;;;1.97;;
6280;SDS011;3173;48.204;11.612;2022-07-05T08:29:18;2.00;;;1.33;;
6280;SDS011;3173;48.204;11.612;2022-07-05T08:31:45;2.97;;;1.30;;
6280;SDS011;3173;48.204;11.612;2022-07-05T08:34:12;4.43;;;1.50;;
6280;SDS011;3173;48.204;11.612;2022-07-05T08:36:38;3.47;;;1.40;;
6280;SDS011;3173;48.204;11.612;2022-07-05T08:39:06;3.63;;;1.20;;
6280;SDS011;3173;48.204;11.612;2022-07-05T08:41:34;6.00;;;1.30;;
6280;SDS011;3173;48.204;11.612;2022-07-05T08:44:01;8.47;;;1.43;;
6280;SDS011;3173;48.204;11.612;2022-07-05T08:46:27;3.27;;;1.17;;
6280;SDS011;3173;48.204;11.612;2022-07-05T08:48:55;2.27;;;1.60;;
6280;SDS011;3173;48.204;11.612;2022-07-05T08:51:23;1.63;;;1.07;;
6280;SDS011;3173;48.204;11.612;2022-07-05T08:53:50;3.63;;;1.10;;
6280;SDS011;3173;48.204;11.612;2022-07-05T08:56:17;7.00;;;1.43;;
6280;SDS011;3173;48.204;11.612;2022-07-05T08:58:43;2.03;;;1.07;;
6280;SDS011;3173;48.204;11.612;2022-07-05T09:01:10;5.23;;;0.93;;
6280;SDS011;3173;48.204;11.612;2022-07-05T09:03:39;2.90;;;1.37;;
6280;SDS011;3173;48.204;11.612;2022-07-05T09:06:07;3.60;;;1.10;;
6280;SDS011;3173;48.204;11.612;2022-07-05T09:08:34;3.17;;;1.17;;
6280;SDS011;3173;48.204;11.612;2022-07-05T09:11:04;3.13;;;1.00;;
6280;SDS011;3173;48.204;11.612;2022-07-05T09:13:33;6.70;;;1.33;;
6280;SDS011;3173;48.204;11.612;2022-07-05T09:15:59;2.97;;;1.40;;
6280;SDS011;3173;48.204;11.612;2022-07-05T09:23:38;2.60;;;1.20;;
6280;SDS011;3173;48.204;11.612;2022-07-05T09:26:04;4.70;;;1.00;;
6280;SDS011;3173;48.204;11.612;2022-07-05T09:28:30;1.60;;;0.83;;
6280;SDS011;3173;48.204;11.612;2022-07-05T09:30:56;2.80;;;1.00;;
6280;SDS011;3173;48.204;11.612;2022-07-05T09:33:22;1.87;;;1.10;;
6280;SDS011;3173;48.204;11.612;2022-07-05T09:35:52;2.07;;;1.17;;
6280;SDS011;3173;48.204;11.612;2022-07-05T09:38:20;3.13;;;0.90;;
6280;SDS011;3173;48.204;11.612;2022-07-05T09:40:50;1.20;;;0.83;;
6280;SDS011;3173;48.204;11.612;2022-07-05T09:43:20;1.80;;;1.10;;
6280;SDS011;3173;48.204;11.612;2022-07-05T09:45:56;2.50;;;1.07;;
6280;SDS011;3173;48.204;11.612;2022-07-05T09:48:22;2.27;;;1.07;;
6280;SDS011;3173;48.204;11.612;2022-07-05T09:50:49;6.50;;;1.13;;
6280;SDS011;3173;48.204;11.612;2022-07-05T09:53:16;6.30;;;1.03;;
6280;SDS011;3173;48.204;11.612;2022-07-05T09:55:45;1.50;;;1.13;;
6280;SDS011;3173;48.204;11.612;2022-07-05T09:58:14;2.83;;;0.93;;
6280;SDS011;3173;48.204;11.612;2022-07-05T10:00:50;3.13;;;1.00;;
6280;SDS011;3173;48.204;11.612;2022-07-05T10:03:16;2.00;;;0.80;;
6280;SDS011;3173;48.204;11.612;2022-07-05T10:05:42;1.53;;;0.90;;
6280;SDS011;3173;48.204;11.612;2022-07-05T10:08:08;3.50;;;0.90;;
6280;SDS011;3173;48.204;11.612;2022-07-05T10:10:35;1.47;;;0.90;;
6280;SDS011;3173;48.204;11.612;2022-07-05T10:13:02;2.67;;;1.07;;
6280;SDS011;3173;48.204;11.612;2022-07-05T10:15:32;1.93;;;0.90;;
6280;SDS011;3173;48.204;11.612;2022-07-05T10:20:34;1.07;;;0.80;;
6280;SDS011;3173;48.204;11.612;2022-07-05T10:23:16;1.00;;;0.80;;
6280;SDS011;3173;48.204;11.612;2022-07-05T10:25:43;1.57;;;0.80;;
6280;SDS011;3173;48.204;11.612;2022-07-05T10:28:12;1.83;;;1.03;;
6280;SDS011;3173;48.204;11.612;2022-07-05T10:30:38;2.90;;;0.70;;
6280;SDS011;3173;48.204;11.612;2022-07-05T10:33:06;5.60;;;1.17;;
6280;SDS011;3173;48.204;11.612;2022-07-05T10:35:33;2.00;;;0.87;;
6280;SDS011;3173;48.204;11.612;2022-07-05T10:37:59;1.67;;;0.87;;
6280;SDS011;3173;48.204;11.612;2022-07-05T10:40:25;1.50;;;0.97;;
6280;SDS011;3173;48.204;11.612;2022-07-05T10:42:55;1.57;;;0.70;;
6280;SDS011;3173;48.204;11.612;2022-07-05T10:45:25;1.60;;;1.00;;
6280;SDS011;3173;48.204;11.612;2022-07-05T10:50:42;1.83;;;1.00;;
6280;SDS011;3173;48.204;11.612;2022-07-05T10:53:08;4.13;;;0.80;;
6280;SDS011;3173;48.204;11.612;2022-07-05T10:55:46;1.47;;;0.80;;
6280;SDS011;3173;48.204;11.612;2022-07-05T10:58:22;1.73;;;0.80;;
6280;SDS011;3173;48.204;11.612;2022-07-05T11:00:50;4.80;;;1.10;;
6280;SDS011;3173;48.204;11.612;2022-07-05T11:03:42;11.70;;;1.83;;
6280;SDS011;3173;48.204;11.612;2022-07-05T11:06:08;6.37;;;1.13;;
6280;SDS011;3173;48.204;11.612;2022-07-05T11:11:25;1.73;;;0.80;;
6280;SDS011;3173;48.204;11.612;2022-07-05T11:13:52;1.80;;;0.67;;
6280;SDS011;3173;48.204;11.612;2022-07-05T11:18:47;3.37;;;0.90;;
6280;SDS011;3173;48.204;11.612;2022-07-05T11:21:17;1.50;;;0.70;;
6280;SDS011;3173;48.204;11.612;2022-07-05T11:23:44;1.20;;;0.70;;
6280;SDS011;3173;48.204;11.612;2022-07-05T11:26:11;2.23;;;0.70;;
6280;SDS011;3173;48.204;11.612;2022-07-05T11:28:41;2.20;;;0.70;;
6280;SDS011;3173;48.204;11.612;2022-07-05T11:31:10;2.17;;;0.97;;
6280;SDS011;3173;48.204;11.612;2022-07-05T11:36:03;2.40;;;0.90;;
6280;SDS011;3173;48.204;11.612;2022-07-05T11:38:29;3.17;;;0.70;;
6280;SDS011;3173;48.204;11.612;2022-07-05T11:40:56;8.83;;;0.90;;
6280;SDS011;3173;48.204;11.612;2022-07-05T11:43:35;1.40;;;0.77;;
6280;SDS011;3173;48.204;11.612;2022-07-05T11:46:01;3.03;;;0.80;;
6280;SDS011;3173;48.204;11.612;2022-07-05T11:48:28;2.03;;;0.70;;
6280;SDS011;3173;48.204;11.612;2022-07-05T11:50:54;3.53;;;0.80;;
6280;SDS011;3173;48.204;11.612;2022-07-05T11:53:27;1.37;;;0.70;;
6280;SDS011;3173;48.204;11.612;2022-07-05T11:55:54;2.33;;;0.93;;
6280;SDS011;3173;48.204;11.612;2022-07-05T11:58:20;1.90;;;0.60;;
6280;SDS011;3173;48.204;11.612;2022-07-05T12:00:52;2.23;;;0.73;;
6280;SDS011;3173;48.204;11.612;2022-07-05T12:03:20;3.10;;;0.70;;
6280;SDS011;3173;48.204;11.612;2022-07-05T12:05:46;1.00;;;0.60;;
6280;SDS011;3173;48.204;11.612;2022-07-05T12:08:18;6.40;;;2.10;;
6280;SDS011;3173;48.204;11.612;2022-07-05T12:10:48;20.23;;;3.00;;
6280;SDS011;3173;48.204;11.612;2022-07-05T12:13:46;11.03;;;1.67;;
6280;SDS011;3173;48.204;11.612;2022-07-05T12:16:12;3.80;;;0.70;;
6280;SDS011;3173;48.204;11.612;2022-07-05T12:18:48;1.83;;;0.73;;
6280;SDS011;3173;48.204;11.612;2022-07-05T12:21:15;5.70;;;1.13;;
6280;SDS011;3173;48.204;11.612;2022-07-05T12:23:42;1.30;;;0.80;;
6280;SDS011;3173;48.204;11.612;2022-07-05T12:26:09;5.00;;;0.90;;
6280;SDS011;3173;48.204;11.612;2022-07-05T12:28:35;3.47;;;0.70;;
6280;SDS011;3173;48.204;11.612;2022-07-05T12:31:14;1.87;;;0.90;;
6280;SDS011;3173;48.204;11.612;2022-07-05T12:33:40;9.10;;;0.80;;
6280;SDS011;3173;48.204;11.612;2022-07-05T12:36:10;3.60;;;0.80;;
6280;SDS011;3173;48.204;11.612;2022-07-05T12:38:37;2.33;;;0.70;;
6280;SDS011;3173;48.204;11.612;2022-07-05T12:41:03;2.50;;;0.73;;
6280;SDS011;3173;48.204;11.612;2022-07-05T12:43:29;4.13;;;0.87;;
6280;SDS011;3173;48.204;11.612;2022-07-05T12:46:03;1.67;;;0.70;;
6280;SDS011;3173;48.204;11.612;2022-07-05T12:48:30;2.50;;;0.70;;
6280;SDS011;3173;48.204;11.612;2022-07-05T12:50:56;1.20;;;0.70;;
6280;SDS011;3173;48.204;11.612;2022-07-05T12:53:22;3.85;;;1.05;;
6280;SDS011;3173;48.204;11.612;2022-07-05T12:56:08;1.70;;;1.00;;
6280;SDS011;3173;48.204;11.612;2022-07-05T12:58:53;1.33;;;0.80;;
6280;SDS011;3173;48.204;11.612;2022-07-05T13:01:21;2.30;;;0.60;;
6280;SDS011;3173;48.204;11.612;2022-07-05T13:09:07;2.70;;;0.80;;
6280;SDS011;3173;48.204;11.612;2022-07-05T13:11:33;1.93;;;0.80;;
6280;SDS011;3173;48.204;11.612;2022-07-05T13:13:59;2.20;;;0.77;;
6280;SDS011;3173;48.204;11.612;2022-07-05T13:16:24;2.07;;;0.80;;
6280;SDS011;3173;48.204;11.612;2022-07-05T13:18:50;2.17;;;0.80;;
6280;SDS011;3173;48.204;11.612;2022-07-05T13:21:16;1.67;;;0.60;;
6280;SDS011;3173;48.204;11.612;2022-07-05T13:23:42;1.80;;;0.80;;
6280;SDS011;3173;48.204;11.612;2022-07-05T13:26:08;7.43;;;0.80;;
6280;SDS011;3173;48.204;11.612;2022-07-05T13:28:34;2.17;;;0.80;;
6280;SDS011;3173;48.204;11.612;2022-07-05T13:31:00;1.50;;;0.70;;
6280;SDS011;3173;48.204;11.612;2022-07-05T13:33:26;1.63;;;0.70;;
6280;SDS011;3173;48.204;11.612;2022-07-05T13:35:52;3.20;;;1.20;;
6280;SDS011;3173;48.204;11.612;2022-07-05T13:38:18;2.97;;;0.90;;
6280;SDS011;3173;48.204;11.612;2022-07-05T13:40:44;1.77;;;0.80;;
6280;SDS011;3173;48.204;11.612;2022-07-05T13:43:10;2.10;;;0.60;;
6280;SDS011;3173;48.204;11.612;2022-07-05T13:45:36;2.37;;;0.93;;
6280;SDS011;3173;48.204;11.612;2022-07-05T13:48:02;2.87;;;0.90;;
6280;SDS011;3173;48.204;11.612;2022-07-05T13:50:31;2.17;;;0.70;;
6280;SDS011;3173;48.204;11.612;2022-07-05T13:52:58;1.47;;;0.63;;
6280;SDS011;3173;48.204;11.612;2022-07-05T13:55:24;6.77;;;0.87;;
6280;SDS011;3173;48.204;11.612;2022-07-05T13:57:50;1.33;;;0.80;;
6280;SDS011;3173;48.204;11.612;2022-07-05T14:00:16;12.50;;;0.83;;
6280;SDS011;3173;48.204;11.612;2022-07-05T14:02:42;2.03;;;0.80;;
6280;SDS011;3173;48.204;11.612;2022-07-05T14:05:08;3.17;;;0.60;;
6280;SDS011;3173;48.204;11.612;2022-07-05T14:07:35;2.80;;;0.90;;
6280;SDS011;3173;48.204;11.612;2022-07-05T14:10:02;5.37;;;1.00;;
6280;SDS011;3173;48.204;11.612;2022-07-05T14:12:28;1.77;;;0.70;;
6280;SDS011;3173;48.204;11.612;2022-07-05T14:14:54;2.40;;;0.60;;
6280;SDS011;3173;48.204;11.612;2022-07-05T14:17:20;2.40;;;0.70;;
6280;SDS011;3173;48.204;11.612;2022-07-05T14:19:46;1.30;;;0.80;;
6280;SDS011;3173;48.204;11.612;2022-07-05T14:22:12;1.93;;;0.70;;
6280;SDS011;3173;48.204;11.612;2022-07-05T14:24:37;1.73;;;0.70;;
6280;SDS011;3173;48.204;11.612;2022-07-05T14:27:03;3.63;;;0.90;;
6280;SDS011;3173;48.204;11.612;2022-07-05T14:29:32;1.20;;;0.63;;
6280;SDS011;3173;48.204;11.612;2022-07-05T14:31:58;1.10;;;0.70;;
6280;SDS011;3173;48.204;11.612;2022-07-05T14:34:24;2.73;;;0.70;;
6280;SDS011;3173;48.204;11.612;2022-07-05T14:36:52;2.30;;;0.70;;
6280;SDS011;3173;48.204;11.612;2022-07-05T14:39:18;1.10;;;0.70;;
6280;SDS011;3173;48.204;11.612;2022-07-05T14:41:45;2.60;;;0.63;;
6280;SDS011;3173;48.204;11.612;2022-07-05T14:44:11;2.90;;;0.80;;
6280;SDS011;3173;48.204;11.612;2022-07-05T14:46:37;2.70;;;0.93;;
6280;SDS011;3173;48.204;11.612;2022-07-05T14:49:02;1.77;;;0.80;;
6280;SDS011;3173;48.204;11.612;2022-07-05T14:51:28;2.57;;;0.80;;
6280;SDS011;3173;48.204;11.612;2022-07-05T14:53:54;2.60;;;0.73;;
6280;SDS011;3173;48.204;11.612;2022-07-05T14:56:20;1.53;;;0.80;;
6280;SDS011;3173;48.204;11.612;2022-07-05T14:58:46;1.40;;;1.00;;
6280;SDS011;3173;48.204;11.612;2022-07-05T15:01:14;7.53;;;0.93;;
6280;SDS011;3173;48.204;11.612;2022-07-05T15:03:39;3.87;;;0.70;;
6280;SDS011;3173;48.204;11.612;2022-07-05T15:06:06;3.97;;;0.97;;
6280;SDS011;3173;48.204;11.612;2022-07-05T15:08:32;2.30;;;0.80;;
6280;SDS011;3173;48.204;11.612;2022-07-05T15:10:58;3.10;;;0.80;;
6280;SDS011;3173;48.204;11.612;2022-07-05T15:13:24;1.30;;;0.80;;
6280;SDS011;3173;48.204;11.612;2022-07-05T15:15:51;8.40;;;0.90;;
6280;SDS011;3173;48.204;11.612;2022-07-05T15:18:17;2.13;;;0.93;;
6280;SDS011;3173;48.204;11.612;2022-07-05T15:20:43;5.73;;;0.80;;
6280;SDS011;3173;48.204;11.612;2022-07-05T15:23:09;6.53;;;0.80;;